Welcome to Northern Hawkes Bay. New Zealand.
PWS Header
      nz Flag



Hit Counter


W3C Valid W3C Valid logo


    Wairoa

Select any of the Stations below to visit their websites.










Historic Data from Weather Underground
Select the location of interest below. Wairoa is the default. Please have patience, this Data is slow to load in.
Northern Hawkes Bay Historical Data
Daily Summary for March 20, 2017 Units:  Metric    English   Both
« Previous Day
Next Day »
Daily Weekly Monthly Yearly Custom
  High: Low: Average:
Temperature: 26.2 °C 9.9 °C 16.8 °C
Dew Point: 16.7 °C 9.7 °C 12.5 °C
Humidity: 99% 43% 79%
Wind Speed: 17.2km/h 0.0km/h 4.8km/h
Wind Gust: 24.5km/h - -
Wind- - West
Pressure: 1022.9 hPa 1011.7 hPa -
Precipitation: 0.0 mm    
Historical Graphs
 
 
Tabular Data for March 20, 2017
Time Temperature Dew Point Pressure Wind Wind Speed Wind Gust Humidity Rainfall Rate (Hourly) solar
00:03 10.9 °C 10.8 °C 1022.9 hPa North 1.1 km/h 8.7 km/h 99% 0.0 mm 0 W/m2
00:08 10.9 °C 10.8 °C 1022.6 hPa North 5.0 km/h 8.7 km/h 99% 0.0 mm 0 W/m2
00:13 10.9 °C 10.8 °C 1022.6 hPa North 3.5 km/h 6.1 km/h 99% 0.0 mm 0 W/m2
00:18 10.9 °C 10.8 °C 1022.2 hPa North 3.5 km/h 7.2 km/h 99% 0.0 mm 0 W/m2
00:23 11.0 °C 10.7 °C 1022.2 hPa NNW 6.1 km/h 9.7 km/h 98% 0.0 mm 0 W/m2
00:28 11.1 °C 10.8 °C 1022.2 hPa NNW 6.1 km/h 11.1 km/h 98% 0.0 mm 0 W/m2
00:33 11.1 °C 10.8 °C 1021.9 hPa North 5.0 km/h 11.1 km/h 98% 0.0 mm 0 W/m2
00:38 11.2 °C 10.9 °C 1021.9 hPa North 5.0 km/h 11.1 km/h 98% 0.0 mm 0 W/m2
00:43 11.2 °C 10.7 °C 1021.9 hPa North 5.0 km/h 7.2 km/h 97% 0.0 mm 0 W/m2
00:48 11.1 °C 10.7 °C 1021.9 hPa NNW 5.0 km/h 11.1 km/h 97% 0.0 mm 0 W/m2
00:53 11.0 °C 10.4 °C 1021.6 hPa NNW 5.0 km/h 11.1 km/h 96% 0.0 mm 0 W/m2
00:58 11.0 °C 10.4 °C 1021.6 hPa NNW 7.2 km/h 12.2 km/h 96% 0.0 mm 0 W/m2
01:03 11.0 °C 10.6 °C 1021.6 hPa NNW 6.1 km/h 13.4 km/h 97% 0.0 mm 0 W/m2
01:08 11.1 °C 10.7 °C 1021.6 hPa NW 7.2 km/h 13.4 km/h 97% 0.0 mm 0 W/m2
01:13 11.2 °C 10.7 °C 1021.6 hPa NW 5.0 km/h 13.4 km/h 97% 0.0 mm 0 W/m2
01:18 11.2 °C 10.7 °C 1021.6 hPa NW 6.1 km/h 13.4 km/h 97% 0.0 mm 0 W/m2
01:23 11.2 °C 10.7 °C 1021.6 hPa NNW 8.7 km/h 12.2 km/h 97% 0.0 mm 0 W/m2
01:28 11.2 °C 10.6 °C 1021.6 hPa NNW 6.1 km/h 12.2 km/h 96% 0.0 mm 0 W/m2
01:33 11.2 °C 10.6 °C 1021.6 hPa NNW 6.1 km/h 13.4 km/h 96% 0.0 mm 0 W/m2
01:38 11.2 °C 10.6 °C 1021.6 hPa NNW 5.0 km/h 13.4 km/h 96% 0.0 mm 0 W/m2
01:43 11.2 °C 10.4 °C 1021.6 hPa North 3.5 km/h 11.1 km/h 95% 0.0 mm 0 W/m2
01:48 11.2 °C 10.4 °C 1021.6 hPa North 5.0 km/h 9.7 km/h 95% 0.0 mm 0 W/m2
01:58 11.2 °C 10.4 °C 1021.2 hPa NNW 7.2 km/h 13.4 km/h 95% 0.0 mm 0 W/m2
02:03 11.2 °C 10.4 °C 1021.6 hPa NNW 6.1 km/h 13.4 km/h 95% 0.0 mm 0 W/m2
02:08 11.2 °C 10.4 °C 1021.2 hPa NNW 7.2 km/h 12.2 km/h 95% 0.0 mm 0 W/m2
02:13 11.1 °C 10.3 °C 1021.2 hPa NNW 6.1 km/h 12.2 km/h 95% 0.0 mm 0 W/m2
02:18 11.1 °C 10.3 °C 1020.9 hPa NNW 5.0 km/h 13.4 km/h 95% 0.0 mm 0 W/m2
02:23 11.0 °C 10.2 °C 1020.9 hPa NNW 6.1 km/h 13.4 km/h 95% 0.0 mm 0 W/m2
02:28 11.0 °C 10.2 °C 1021.2 hPa NNW 8.7 km/h 12.2 km/h 95% 0.0 mm 0 W/m2
02:33 11.0 °C 10.4 °C 1020.9 hPa NNW 7.2 km/h 12.2 km/h 96% 0.0 mm 0 W/m2
02:38 11.0 °C 10.4 °C 1020.9 hPa NNW 7.2 km/h 12.2 km/h 96% 0.0 mm 0 W/m2
02:48 11.0 °C 10.4 °C 1020.5 hPa NNW 9.7 km/h 12.2 km/h 96% 0.0 mm 0 W/m2
02:53 11.0 °C 10.4 °C 1020.5 hPa NNW 7.2 km/h 13.4 km/h 96% 0.0 mm 0 W/m2
02:58 11.0 °C 10.4 °C 1020.5 hPa NNW 6.1 km/h 13.4 km/h 96% 0.0 mm 0 W/m2
03:03 11.0 °C 10.4 °C 1020.5 hPa NNW 5.0 km/h 12.2 km/h 96% 0.0 mm 0 W/m2
03:09 11.0 °C 10.4 °C 1020.2 hPa NNW 3.5 km/h 11.1 km/h 96% 0.0 mm 0 W/m2
03:14 11.0 °C 10.4 °C 1019.9 hPa Calm   11.1 km/h 96% 0.0 mm 0 W/m2
03:19 10.9 °C 10.4 °C 1019.9 hPa Calm   9.7 km/h 97% 0.0 mm 0 W/m2
03:24 10.9 °C 10.4 °C 1019.9 hPa NNW 2.6 km/h 9.7 km/h 97% 0.0 mm 0 W/m2
03:29 10.9 °C 10.4 °C 1019.9 hPa NNW 3.5 km/h 9.7 km/h 97% 0.0 mm 0 W/m2
03:34 10.9 °C 10.4 °C 1019.9 hPa NW 2.6 km/h 11.1 km/h 97% 0.0 mm 0 W/m2
03:39 10.8 °C 10.3 °C 1019.5 hPa Calm   11.1 km/h 97% 0.0 mm 0 W/m2
03:44 10.7 °C 10.2 °C 1019.5 hPa NNW 3.5 km/h 7.2 km/h 97% 0.0 mm 0 W/m2
03:49 10.8 °C 10.3 °C 1019.2 hPa Calm   7.2 km/h 97% 0.0 mm 0 W/m2
03:54 10.8 °C 10.3 °C 1019.2 hPa Calm   7.2 km/h 97% 0.0 mm 0 W/m2
03:59 10.7 °C 10.2 °C 1018.8 hPa NNW 3.5 km/h 9.7 km/h 97% 0.0 mm 0 W/m2
04:04 10.8 °C 10.3 °C 1018.8 hPa North 5.0 km/h 12.2 km/h 97% 0.0 mm 0 W/m2
04:09 10.7 °C 10.4 °C 1018.8 hPa North 7.2 km/h 12.2 km/h 98% 0.0 mm 0 W/m2
04:14 10.6 °C 10.3 °C 1018.8 hPa NNW 6.1 km/h 11.1 km/h 98% 0.0 mm 0 W/m2
04:19 10.7 °C 10.2 °C 1018.8 hPa NNW 5.0 km/h 11.1 km/h 97% 0.0 mm 0 W/m2
04:24 10.7 °C 10.2 °C 1018.8 hPa NNW 3.5 km/h 11.1 km/h 97% 0.0 mm 0 W/m2
04:29 10.6 °C 10.2 °C 1018.5 hPa Calm   9.7 km/h 97% 0.0 mm 0 W/m2
04:34 10.5 °C 10.1 °C 1018.5 hPa Calm   7.2 km/h 97% 0.0 mm 0 W/m2
04:39 10.4 °C 9.9 °C 1018.5 hPa NNE 2.6 km/h 6.1 km/h 97% 0.0 mm 0 W/m2
04:44 10.4 °C 9.9 °C 1018.5 hPa Calm   6.1 km/h 97% 0.0 mm 0 W/m2
04:51 10.2 °C 9.7 °C 1018.5 hPa Calm   6.1 km/h 97% 0.0 mm 0 W/m2
04:56 10.1 °C 9.7 °C 1018.5 hPa Calm     97% 0.0 mm 0 W/m2
05:01 10.0 °C 9.7 °C 1018.5 hPa Calm   5.0 km/h 98% 0.0 mm 0 W/m2
05:06 10.0 °C 9.7 °C 1018.5 hPa Calm   5.0 km/h 98% 0.0 mm 0 W/m2
05:11 10.0 °C 9.7 °C 1018.2 hPa Calm   2.6 km/h 98% 0.0 mm 0 W/m2
05:16 10.0 °C 9.7 °C 1018.5 hPa NNW 5.0 km/h 7.2 km/h 98% 0.0 mm 0 W/m2
05:22 10.1 °C 9.8 °C 1018.5 hPa NNW 5.0 km/h 8.7 km/h 98% 0.0 mm 0 W/m2
05:27 10.2 °C 10.1 °C 1018.5 hPa NW 5.0 km/h 9.7 km/h 99% 0.0 mm 0 W/m2
05:32 10.2 °C 10.1 °C 1018.5 hPa NNW 5.0 km/h 9.7 km/h 99% 0.0 mm 0 W/m2
05:37 10.3 °C 10.2 °C 1018.5 hPa North 5.0 km/h 8.7 km/h 99% 0.0 mm 0 W/m2
05:42 10.3 °C 10.2 °C 1018.2 hPa North 5.0 km/h 9.7 km/h 99% 0.0 mm 0 W/m2
05:47 10.4 °C 10.3 °C 1018.2 hPa North 5.0 km/h 9.7 km/h 99% 0.0 mm 0 W/m2
05:52 10.3 °C 10.2 °C 1018.2 hPa NNW 5.0 km/h 9.7 km/h 99% 0.0 mm 0 W/m2
05:57 10.3 °C 10.2 °C 1017.8 hPa NNW 7.2 km/h 9.7 km/h 99% 0.0 mm 0 W/m2
06:02 10.2 °C 10.1 °C 1017.8 hPa NNW 6.1 km/h 11.1 km/h 99% 0.0 mm 0 W/m2
06:19 10.0 °C 9.8 °C 1017.8 hPa NNW 5.0 km/h 11.1 km/h 99% 0.0 mm 0 W/m2
06:24 10.0 °C 9.8 °C 1017.5 hPa Calm   9.7 km/h 99% 0.0 mm 0 W/m2
06:29 9.9 °C 9.8 °C 1017.5 hPa Calm   7.2 km/h 99% 0.0 mm 0 W/m2
06:34 9.9 °C 9.8 °C 1017.5 hPa NNW 1.1 km/h 6.1 km/h 99% 0.0 mm 0 W/m2
06:39 9.9 °C 9.8 °C 1017.5 hPa NNW 1.1 km/h 5.0 km/h 99% 0.0 mm 0 W/m2
06:44 10.0 °C 9.8 °C 1017.5 hPa NNW 1.1 km/h 9.7 km/h 99% 0.0 mm 0 W/m2
06:49 10.1 °C 9.9 °C 1017.5 hPa NNW 3.5 km/h 9.7 km/h 99% 0.0 mm 0 W/m2
06:54 10.2 °C 10.1 °C 1017.2 hPa North 2.6 km/h 9.7 km/h 99% 0.0 mm 0 W/m2
06:59 10.2 °C 10.1 °C 1017.2 hPa North 3.5 km/h 11.1 km/h 99% 0.0 mm 0 W/m2
07:04 10.2 °C 10.1 °C 1017.2 hPa NNW 3.5 km/h 11.1 km/h 99% 0.0 mm 0 W/m2
07:09 10.1 °C 9.9 °C 1016.8 hPa Calm   6.1 km/h 99% 0.0 mm 1 W/m2
07:14 10.1 °C 9.9 °C 1016.8 hPa Calm   11.1 km/h 99% 0.0 mm 3 W/m2
07:19 10.0 °C 9.8 °C 1016.8 hPa Calm   11.1 km/h 99% 0.0 mm 6 W/m2
07:24 10.0 °C 9.8 °C 1016.8 hPa North 5.0 km/h 11.1 km/h 99% 0.0 mm 12 W/m2
07:29 10.0 °C 9.8 °C 1016.8 hPa Calm   11.1 km/h 99% 0.0 mm 16 W/m2
07:34 10.0 °C 9.8 °C 1016.8 hPa Calm   8.7 km/h 99% 0.0 mm 22 W/m2
07:39 10.1 °C 9.9 °C 1016.8 hPa Calm   8.7 km/h 99% 0.0 mm 34 W/m2
07:44 10.3 °C 10.2 °C 1016.5 hPa NNW 7.2 km/h 9.7 km/h 99% 0.0 mm 90 W/m2
07:49 10.6 °C 10.4 °C 1016.5 hPa Calm   11.1 km/h 99% 0.0 mm 74 W/m2
07:54 10.7 °C 10.6 °C 1016.5 hPa NNW 6.1 km/h 11.1 km/h 99% 0.0 mm 143 W/m2
07:59 11.2 °C 10.9 °C 1016.5 hPa NNW 8.7 km/h 12.2 km/h 98% 0.0 mm 148 W/m2
08:04 11.6 °C 11.2 °C 1016.5 hPa NNW 7.2 km/h 12.2 km/h 97% 0.0 mm 153 W/m2
08:09 11.8 °C 11.2 °C 1016.5 hPa NNW 5.0 km/h 12.2 km/h 96% 0.0 mm 86 W/m2
08:14 11.8 °C 11.1 °C 1016.5 hPa NW 8.7 km/h 13.4 km/h 95% 0.0 mm 108 W/m2
08:29 12.1 °C 11.0 °C 1016.5 hPa NW 7.2 km/h 13.4 km/h 93% 0.0 mm 108 W/m2
08:34 12.2 °C 11.1 °C 1016.5 hPa NNW 6.1 km/h 13.4 km/h 93% 0.0 mm 140 W/m2
08:39 12.5 °C 11.2 °C 1016.5 hPa NNW 6.1 km/h 12.2 km/h 92% 0.0 mm 164 W/m2
08:44 12.8 °C 11.6 °C 1016.1 hPa NW 11.1 km/h 17.2 km/h 92% 0.0 mm 168 W/m2
08:49 12.9 °C 11.4 °C 1016.1 hPa NW 8.7 km/h 17.2 km/h 91% 0.0 mm 151 W/m2
08:54 13.0 °C 11.4 °C 1016.1 hPa NNW 11.1 km/h 15.8 km/h 90% 0.0 mm 219 W/m2
08:59 13.5 °C 11.9 °C 1016.1 hPa NNW 9.7 km/h 15.8 km/h 90% 0.0 mm 251 W/m2
09:04 14.0 °C 12.1 °C 1016.1 hPa NNW 12.2 km/h 17.2 km/h 88% 0.0 mm 253 W/m2
09:09 14.6 °C 12.4 °C 1016.1 hPa NNW 7.2 km/h 17.2 km/h 87% 0.0 mm 239 W/m2
09:14 14.8 °C 12.3 °C 1016.1 hPa NNW 7.2 km/h 15.8 km/h 85% 0.0 mm 242 W/m2
09:20 15.1 °C 12.4 °C 1016.1 hPa NNW 12.2 km/h 15.8 km/h 84% 0.0 mm 278 W/m2
09:25 15.3 °C 12.6 °C 1016.1 hPa NNW 12.2 km/h 15.8 km/h 84% 0.0 mm 253 W/m2
09:30 15.6 °C 12.7 °C 1016.1 hPa NNW 9.7 km/h 15.8 km/h 83% 0.0 mm 259 W/m2
09:35 16.1 °C 13.1 °C 1016.1 hPa NNW 8.7 km/h 15.8 km/h 82% 0.0 mm 270 W/m2
09:40 16.5 °C 13.4 °C 1016.1 hPa NNW 7.2 km/h 14.8 km/h 82% 0.0 mm 267 W/m2
09:46 17.0 °C 13.3 °C 1016.1 hPa North 6.1 km/h 13.4 km/h 79% 0.0 mm 221 W/m2
09:51 17.3 °C 13.4 °C 1016.1 hPa North 6.1 km/h 13.4 km/h 78% 0.0 mm 223 W/m2
09:56 17.6 °C 13.6 °C 1016.1 hPa NNW 5.0 km/h 12.2 km/h 77% 0.0 mm 221 W/m2
10:01 17.8 °C 13.5 °C 1015.8 hPa NNW 7.2 km/h 13.4 km/h 76% 0.0 mm 254 W/m2
10:06 18.2 °C 13.9 °C 1015.8 hPa NNW 8.7 km/h 14.8 km/h 76% 0.0 mm 262 W/m2
10:11 18.5 °C 14.2 °C 1015.8 hPa NNW 8.7 km/h 14.8 km/h 76% 0.0 mm 288 W/m2
10:16 18.7 °C 14.2 °C 1015.8 hPa North 9.7 km/h 15.8 km/h 75% 0.0 mm 285 W/m2
10:22 19.0 °C 14.3 °C 1015.5 hPa NNW 9.7 km/h 15.8 km/h 74% 0.0 mm 315 W/m2
10:27 19.3 °C 14.3 °C 1015.5 hPa NNW 11.1 km/h 14.8 km/h 73% 0.0 mm 275 W/m2
10:32 19.5 °C 14.3 °C 1015.5 hPa NNW 3.5 km/h 14.8 km/h 72% 0.0 mm 435 W/m2
10:48 20.5 °C 14.2 °C 1015.5 hPa North 8.7 km/h 17.2 km/h 67% 0.0 mm 265 W/m2
10:53 20.6 °C 14.1 °C 1015.5 hPa North 9.7 km/h 18.3 km/h 66% 0.0 mm 261 W/m2
10:58 20.7 °C 13.9 °C 1015.5 hPa North 8.7 km/h 18.3 km/h 65% 0.0 mm 269 W/m2
11:03 20.6 °C 13.6 °C 1015.5 hPa NNW 6.1 km/h 18.3 km/h 64% 0.0 mm 324 W/m2
11:20 21.2 °C 13.9 °C 1015.5 hPa North 7.2 km/h 12.2 km/h 63% 0.0 mm 345 W/m2
11:25 21.6 °C 14.0 °C 1015.5 hPa North 2.6 km/h 13.4 km/h 62% 0.0 mm 247 W/m2
11:30 21.9 °C 14.3 °C 1015.5 hPa North 7.2 km/h 13.4 km/h 62% 0.0 mm 454 W/m2
11:35 22.4 °C 14.0 °C 1015.5 hPa North 9.7 km/h 17.2 km/h 59% 0.0 mm 538 W/m2
11:40 22.8 °C 13.8 °C 1015.5 hPa North 7.2 km/h 17.2 km/h 57% 0.0 mm 543 W/m2
11:45 22.9 °C 13.7 °C 1015.5 hPa North 7.2 km/h 17.2 km/h 56% 0.0 mm 569 W/m2
11:50 23.3 °C 13.8 °C 1015.5 hPa North 8.7 km/h 14.8 km/h 55% 0.0 mm 510 W/m2
11:55 23.0 °C 13.5 °C 1015.1 hPa North 7.2 km/h 17.2 km/h 55% 0.0 mm 469 W/m2
12:00 23.2 °C 13.7 °C 1015.1 hPa North 8.7 km/h 17.2 km/h 55% 0.0 mm 429 W/m2
12:05 23.4 °C 14.2 °C 1015.1 hPa North 6.1 km/h 14.8 km/h 56% 0.0 mm 493 W/m2
12:10 23.9 °C 14.3 °C 1015.5 hPa NNW 7.2 km/h 14.8 km/h 55% 0.0 mm 415 W/m2
12:15 23.8 °C 14.2 °C 1015.1 hPa NNW 9.7 km/h 13.4 km/h 55% 0.0 mm 366 W/m2
12:20 23.8 °C 13.9 °C 1015.1 hPa NW 7.2 km/h 15.8 km/h 54% 0.0 mm 359 W/m2
12:25 23.8 °C 12.4 °C 1015.1 hPa NW 12.2 km/h 18.3 km/h 49% 0.0 mm 366 W/m2
12:30 23.5 °C 11.9 °C 1015.1 hPa NW 2.6 km/h 18.3 km/h 48% 0.0 mm 387 W/m2
12:35 23.8 °C 12.4 °C 1014.8 hPa NW 13.4 km/h 17.2 km/h 49% 0.0 mm 394 W/m2
12:40 23.5 °C 11.6 °C 1014.8 hPa NW 13.4 km/h 18.3 km/h 47% 0.0 mm 370 W/m2
12:45 23.4 °C 11.8 °C 1014.8 hPa NW 9.7 km/h 18.3 km/h 48% 0.0 mm 339 W/m2
12:50 23.4 °C 11.8 °C 1014.8 hPa NW 5.0 km/h 17.2 km/h 48% 0.0 mm 304 W/m2
12:55 23.6 °C 12.6 °C 1014.8 hPa NW 7.2 km/h 17.2 km/h 50% 0.0 mm 265 W/m2
13:00 23.4 °C 12.1 °C 1014.8 hPa NW 8.7 km/h 20.9 km/h 49% 0.0 mm 282 W/m2
13:05 23.6 °C 12.6 °C 1014.8 hPa NW 5.0 km/h 20.9 km/h 50% 0.0 mm 310 W/m2
13:10 23.6 °C 12.3 °C 1014.4 hPa NW 3.5 km/h 15.8 km/h 49% 0.0 mm 388 W/m2
13:15 24.0 °C 12.3 °C 1014.4 hPa NNW 12.2 km/h 19.5 km/h 48% 0.0 mm 420 W/m2
13:20 24.1 °C 11.8 °C 1014.8 hPa NW 12.2 km/h 24.5 km/h 46% 0.0 mm 672 W/m2
13:25 24.6 °C 12.6 °C 1014.4 hPa NW 6.1 km/h 24.5 km/h 47% 0.0 mm 469 W/m2
13:30 24.9 °C 12.5 °C 1014.4 hPa NW 9.7 km/h 15.8 km/h 46% 0.0 mm 379 W/m2
13:35 24.6 °C 12.2 °C 1014.4 hPa WNW 12.2 km/h 19.5 km/h 46% 0.0 mm 336 W/m2
13:40 24.4 °C 12.1 °C 1014.4 hPa NW 17.2 km/h 21.9 km/h 46% 0.0 mm 386 W/m2
13:45 24.1 °C 11.8 °C 1014.4 hPa NNW 12.2 km/h 23.3 km/h 46% 0.0 mm 402 W/m2
13:50 24.0 °C 11.7 °C 1014.4 hPa NW 11.1 km/h 23.3 km/h 46% 0.0 mm 361 W/m2
13:55 24.0 °C 11.7 °C 1014.4 hPa NW 14.8 km/h 21.9 km/h 46% 0.0 mm 302 W/m2
14:00 23.6 °C 11.9 °C 1014.4 hPa NW 12.2 km/h 21.9 km/h 48% 0.0 mm 312 W/m2
14:05 23.6 °C 11.7 °C 1014.1 hPa NW 7.2 km/h 21.9 km/h 47% 0.0 mm 409 W/m2
14:10 23.9 °C 12.2 °C 1014.1 hPa NW 7.2 km/h 17.2 km/h 48% 0.0 mm 296 W/m2
14:16 23.8 °C 12.2 °C 1014.1 hPa NW 8.7 km/h 21.9 km/h 48% 0.0 mm 349 W/m2
14:21 24.1 °C 11.8 °C 1014.1 hPa NW 12.2 km/h 21.9 km/h 46% 0.0 mm 392 W/m2
14:26 24.1 °C 11.8 °C 1013.8 hPa NW 3.5 km/h 21.9 km/h 46% 0.0 mm 292 W/m2
14:31 24.0 °C 11.3 °C 1013.8 hPa NW 11.1 km/h 21.9 km/h 45% 0.0 mm 333 W/m2
14:36 24.1 °C 11.8 °C 1013.8 hPa NW 7.2 km/h 21.9 km/h 46% 0.0 mm 304 W/m2
14:41 24.1 °C 11.8 °C 1013.4 hPa NW 7.2 km/h 18.3 km/h 46% 0.0 mm 293 W/m2
14:46 24.1 °C 11.4 °C 1013.8 hPa NW 7.2 km/h 20.9 km/h 45% 0.0 mm 330 W/m2
14:51 24.2 °C 11.6 °C 1013.4 hPa WNW 11.1 km/h 20.9 km/h 45% 0.0 mm 334 W/m2
14:56 24.3 °C 11.9 °C 1013.4 hPa NW 3.5 km/h 19.5 km/h 46% 0.0 mm 321 W/m2
15:01 24.7 °C 12.3 °C 1013.4 hPa NW 8.7 km/h 15.8 km/h 46% 0.0 mm 344 W/m2
15:06 24.8 °C 12.1 °C 1013.4 hPa NW 8.7 km/h 12.2 km/h 45% 0.0 mm 389 W/m2
15:14 25.3 °C 12.6 °C 1013.4 hPa NW 6.1 km/h 13.4 km/h 45% 0.0 mm 351 W/m2
15:19 25.1 °C 12.0 °C 1013.4 hPa NNW 5.0 km/h 13.4 km/h 44% 0.0 mm 297 W/m2
15:24 25.2 °C 12.1 °C 1013.4 hPa NW 9.7 km/h 14.8 km/h 44% 0.0 mm 283 W/m2
15:29 25.0 °C 11.9 °C 1013.1 hPa NW 11.1 km/h 18.3 km/h 44% 0.0 mm 267 W/m2
15:34 24.8 °C 12.1 °C 1013.1 hPa NW 11.1 km/h 19.5 km/h 45% 0.0 mm 253 W/m2
15:39 24.6 °C 12.2 °C 1013.1 hPa NW 8.7 km/h 19.5 km/h 46% 0.0 mm 240 W/m2
15:44 24.6 °C 12.2 °C 1013.1 hPa NW 3.5 km/h 15.8 km/h 46% 0.0 mm 236 W/m2
15:49 24.6 °C 12.6 °C 1012.8 hPa NW 6.1 km/h 15.8 km/h 47% 0.0 mm 248 W/m2
15:54 24.9 °C 13.4 °C 1012.8 hPa NNW 5.0 km/h 14.8 km/h 49% 0.0 mm 259 W/m2
15:59 25.1 °C 12.7 °C 1012.8 hPa North 9.7 km/h 14.8 km/h 46% 0.0 mm 371 W/m2
16:04 25.3 °C 12.9 °C 1012.8 hPa North 14.8 km/h 17.2 km/h 46% 0.0 mm 288 W/m2
16:09 25.1 °C 12.7 °C 1012.8 hPa North 7.2 km/h 17.2 km/h 46% 0.0 mm 245 W/m2
16:14 24.9 °C 12.8 °C 1012.8 hPa North 9.7 km/h 17.2 km/h 47% 0.0 mm 227 W/m2
16:20 24.7 °C 12.9 °C 1012.4 hPa North 8.7 km/h 13.4 km/h 48% 0.0 mm 221 W/m2
16:25 24.8 °C 13.4 °C 1012.4 hPa NNW 2.6 km/h 13.4 km/h 49% 0.0 mm 240 W/m2
16:30 25.1 °C 12.7 °C 1012.4 hPa NNW 7.2 km/h 12.2 km/h 46% 0.0 mm 251 W/m2
16:36 25.2 °C 12.4 °C 1012.4 hPa NNW 5.0 km/h 13.4 km/h 45% 0.0 mm 322 W/m2
16:41 25.8 °C 13.3 °C 1012.8 hPa North 7.2 km/h 13.4 km/h 46% 0.0 mm 284 W/m2
16:46 25.9 °C 13.1 °C 1012.4 hPa North 8.7 km/h 9.7 km/h 45% 0.0 mm 275 W/m2
16:51 25.9 °C 13.1 °C 1012.4 hPa NNW 1.1 km/h 12.2 km/h 45% 0.0 mm 265 W/m2
16:56 26.0 °C 12.8 °C 1012.4 hPa NNW 1.1 km/h 12.2 km/h 44% 0.0 mm 261 W/m2
17:01 26.2 °C 12.7 °C 1012.4 hPa NNE 6.1 km/h 12.2 km/h 43% 0.0 mm 186 W/m2
17:06 25.7 °C 12.9 °C 1012.4 hPa NNE 5.0 km/h 8.7 km/h 45% 0.0 mm 151 W/m2
17:11 25.5 °C 12.7 °C 1012.4 hPa NNE 2.6 km/h 8.7 km/h 45% 0.0 mm 145 W/m2
17:16 25.3 °C 12.9 °C 1012.4 hPa NNE 2.6 km/h 7.2 km/h 46% 0.0 mm 138 W/m2
17:21 25.0 °C 12.6 °C 1012.4 hPa North 3.5 km/h 8.7 km/h 46% 0.0 mm 131 W/m2
17:26 25.1 °C 13.3 °C 1012.4 hPa Calm   8.7 km/h 48% 0.0 mm 127 W/m2
17:31 25.1 °C 13.7 °C 1012.4 hPa NE 5.0 km/h 6.1 km/h 49% 0.0 mm 126 W/m2
17:36 25.0 °C 13.6 °C 1012.4 hPa Calm   6.1 km/h 49% 0.0 mm 127 W/m2
17:41 25.1 °C 13.7 °C 1012.8 hPa Calm   6.1 km/h 49% 0.0 mm 123 W/m2
17:46 25.3 °C 13.8 °C 1012.8 hPa Calm     49% 0.0 mm 123 W/m2
17:51 25.2 °C 15.3 °C 1012.8 hPa South 8.7 km/h 13.4 km/h 54% 0.0 mm 130 W/m2
17:56 23.5 °C 16.6 °C 1012.8 hPa SSE 11.1 km/h 14.8 km/h 65% 0.0 mm 120 W/m2
18:01 22.4 °C 16.0 °C 1012.8 hPa SSE 6.1 km/h 14.8 km/h 67% 0.0 mm 151 W/m2
18:06 22.8 °C 16.6 °C 1012.8 hPa SSE 3.5 km/h 14.8 km/h 68% 0.0 mm 133 W/m2
18:11 23.0 °C 16.3 °C 1012.8 hPa SSE 3.5 km/h 12.2 km/h 66% 0.0 mm 107 W/m2
18:16 22.4 °C 16.2 °C 1012.8 hPa SSE 2.6 km/h 9.7 km/h 68% 0.0 mm 94 W/m2
18:21 22.1 °C 16.2 °C 1013.1 hPa Calm   9.7 km/h 69% 0.0 mm 86 W/m2
18:26 21.8 °C 16.1 °C 1012.8 hPa SE 5.0 km/h 7.2 km/h 70% 0.0 mm 77 W/m2
18:31 21.9 °C 16.4 °C 1012.8 hPa SE 2.6 km/h 7.2 km/h 71% 0.0 mm 74 W/m2
18:36 21.8 °C 16.3 °C 1013.1 hPa Calm   9.7 km/h 71% 0.0 mm 60 W/m2
18:41 21.6 °C 16.1 °C 1013.1 hPa Calm   9.7 km/h 71% 0.0 mm 50 W/m2
18:46 21.3 °C 16.1 °C 1013.1 hPa SSE 3.5 km/h 6.1 km/h 72% 0.0 mm 44 W/m2
18:51 21.3 °C 16.1 °C 1013.1 hPa SSE 5.0 km/h 7.2 km/h 72% 0.0 mm 37 W/m2
18:56 21.0 °C 16.2 °C 1013.1 hPa SSE 1.1 km/h 7.2 km/h 74% 0.0 mm 31 W/m2
19:01 20.7 °C 16.6 °C 1013.4 hPa SSE 1.1 km/h 6.1 km/h 77% 0.0 mm 24 W/m2
19:06 20.4 °C 16.7 °C 1013.1 hPa Calm   7.2 km/h 79% 0.0 mm 18 W/m2
19:11 20.1 °C 16.6 °C 1013.1 hPa SSW 5.0 km/h 7.2 km/h 80% 0.0 mm 13 W/m2
19:16 19.5 °C 16.7 °C 1013.1 hPa South 5.0 km/h 8.7 km/h 84% 0.0 mm 10 W/m2
19:21 19.1 °C 16.3 °C 1013.1 hPa South 5.0 km/h 8.7 km/h 84% 0.0 mm 6 W/m2
19:26 18.9 °C 16.3 °C 1013.4 hPa SSW 1.1 km/h 8.7 km/h 85% 0.0 mm 3 W/m2
19:31 18.8 °C 16.4 °C 1013.4 hPa SSW 3.5 km/h 8.7 km/h 86% 0.0 mm 1 W/m2
19:36 18.5 °C 16.3 °C 1013.4 hPa SW 5.0 km/h 7.2 km/h 87% 0.0 mm 0 W/m2
19:41 18.3 °C 16.1 °C 1013.4 hPa SSW 5.0 km/h 7.2 km/h 87% 0.0 mm 0 W/m2
19:46 18.1 °C 15.9 °C 1013.4 hPa SSW 3.5 km/h 7.2 km/h 87% 0.0 mm 0 W/m2
19:51 17.8 °C 15.4 °C 1013.4 hPa Calm   6.1 km/h 86% 0.0 mm 0 W/m2
19:56 17.6 °C 15.2 °C 1013.1 hPa Calm   5.0 km/h 86% 0.0 mm 0 W/m2
20:01 17.5 °C 15.2 °C 1013.1 hPa Calm   3.5 km/h 86% 0.0 mm 0 W/m2
20:06 17.3 °C 14.9 °C 1013.4 hPa Calm     86% 0.0 mm 0 W/m2
20:11 17.2 °C 14.8 °C 1013.4 hPa Calm     86% 0.0 mm 0 W/m2
20:16 17.0 °C 14.7 °C 1013.4 hPa Calm     86% 0.0 mm 0 W/m2
20:21 17.0 °C 14.8 °C 1013.4 hPa Calm   6.1 km/h 87% 0.0 mm 0 W/m2
20:26 16.9 °C 14.9 °C 1013.4 hPa Calm   6.1 km/h 88% 0.0 mm 0 W/m2
20:31 16.8 °C 14.8 °C 1013.4 hPa Calm     88% 0.0 mm 0 W/m2
20:36 16.7 °C 14.7 °C 1013.4 hPa Calm     88% 0.0 mm 0 W/m2
20:41 16.6 °C 14.6 °C 1013.4 hPa Calm     88% 0.0 mm 0 W/m2
20:46 16.4 °C 14.4 °C 1013.4 hPa Calm     88% 0.0 mm 0 W/m2
20:51 16.2 °C 14.2 °C 1013.4 hPa Calm     88% 0.0 mm 0 W/m2
20:56 16.2 °C 14.6 °C 1013.4 hPa Calm     90% 0.0 mm 0 W/m2
21:01 16.0 °C 14.4 °C 1013.4 hPa Calm     90% 0.0 mm 0 W/m2
21:06 15.8 °C 14.3 °C 1013.4 hPa Calm     91% 0.0 mm 0 W/m2
21:11 15.6 °C 14.2 °C 1013.4 hPa Calm     91% 0.0 mm 0 W/m2
21:16 15.7 °C 14.4 °C 1013.4 hPa Calm     92% 0.0 mm 0 W/m2
21:26 15.5 °C 14.4 °C 1013.4 hPa Calm     93% 0.0 mm 0 W/m2
21:36 15.5 °C 14.6 °C 1013.4 hPa Calm     94% 0.0 mm 0 W/m2
21:41 15.4 °C 14.4 °C 1013.4 hPa Calm     94% 0.0 mm 0 W/m2
21:46 15.2 °C 14.2 °C 1013.4 hPa Calm     94% 0.0 mm 0 W/m2
21:51 15.0 °C 14.1 °C 1013.4 hPa Calm     94% 0.0 mm 0 W/m2
21:57 14.8 °C 14.0 °C 1013.1 hPa Calm     95% 0.0 mm 0 W/m2
22:02 14.9 °C 14.1 °C 1013.1 hPa Calm     95% 0.0 mm 0 W/m2
22:07 14.8 °C 14.2 °C 1013.1 hPa Calm     96% 0.0 mm 0 W/m2
22:12 14.7 °C 14.1 °C 1013.1 hPa Calm     96% 0.0 mm 0 W/m2
22:14 14.7 °C 14.1 °C 1013.1 hPa North 1.1 km/h 3.5 km/h 96% 0.0 mm 0 W/m2
22:19 14.6 °C 14.0 °C 1013.1 hPa Calm   5.0 km/h 96% 0.0 mm 0 W/m2
22:24 14.4 °C 13.9 °C 1012.8 hPa Calm   5.0 km/h 97% 0.0 mm 0 W/m2
22:29 14.3 °C 13.8 °C 1013.1 hPa Calm     97% 0.0 mm 0 W/m2
22:34 14.2 °C 13.7 °C 1012.8 hPa Calm     97% 0.0 mm 0 W/m2
22:39 14.1 °C 13.6 °C 1012.4 hPa Calm     97% 0.0 mm 0 W/m2
22:44 14.0 °C 13.6 °C 1012.8 hPa Calm   2.6 km/h 97% 0.0 mm 0 W/m2
22:49 14.2 °C 13.7 °C 1012.4 hPa Calm   2.6 km/h 97% 0.0 mm 0 W/m2
22:54 14.1 °C 13.8 °C 1012.8 hPa Calm     98% 0.0 mm 0 W/m2
22:59 14.0 °C 13.7 °C 1012.8 hPa Calm     98% 0.0 mm 0 W/m2
23:04 13.9 °C 13.8 °C 1012.4 hPa Calm     99% 0.0 mm 0 W/m2
23:09 13.8 °C 13.7 °C 1012.4 hPa WNW 3.5 km/h 6.1 km/h 99% 0.0 mm 0 W/m2
23:14 13.8 °C 13.7 °C 1012.4 hPa NW 3.5 km/h 7.2 km/h 99% 0.0 mm 0 W/m2
23:19 13.8 °C 13.7 °C 1012.4 hPa Calm   7.2 km/h 99% 0.0 mm 0 W/m2
23:24 13.6 °C 13.4 °C 1012.1 hPa Calm   5.0 km/h 99% 0.0 mm 0 W/m2
23:29 13.6 °C 13.4 °C 1012.1 hPa Calm     99% 0.0 mm 0 W/m2
23:34 13.7 °C 13.6 °C 1012.1 hPa Calm     99% 0.0 mm 0 W/m2
23:39 13.7 °C 13.6 °C 1012.1 hPa North 3.5 km/h 5.0 km/h 99% 0.0 mm 0 W/m2
23:44 13.7 °C 13.6 °C 1012.1 hPa Calm   5.0 km/h 99% 0.0 mm 0 W/m2
23:49 13.7 °C 13.6 °C 1011.7 hPa Calm   1.1 km/h 99% 0.0 mm 0 W/m2
23:54 13.7 °C 13.6 °C 1012.1 hPa NNW 3.5 km/h 6.1 km/h 99% 0.0 mm 0 W/m2
23:59 13.7 °C 13.6 °C 1011.7 hPa Calm   6.1 km/h 99% 0.0 mm 0 W/m2
Northern Hawkes Bay. New Zealand Historic Data
Compliments of Weather Underground - 2.25 mb